sensor_id;sensor_type;location;lat;lon;timestamp;temperature;humidity
14604;DHT22;7388;51.078;13.740;2022-09-16T00:00:14;18.60;50.50
14604;DHT22;7388;51.078;13.740;2022-09-16T00:02:40;18.60;51.30
14604;DHT22;7388;51.078;13.740;2022-09-16T00:05:07;18.60;50.40
14604;DHT22;7388;51.078;13.740;2022-09-16T00:07:33;18.60;50.40
14604;DHT22;7388;51.078;13.740;2022-09-16T00:09:59;18.60;50.40
14604;DHT22;7388;51.078;13.740;2022-09-16T00:12:25;18.60;50.60
14604;DHT22;7388;51.078;13.740;2022-09-16T00:14:52;18.60;50.60
14604;DHT22;7388;51.078;13.740;2022-09-16T00:17:18;18.50;50.60
14604;DHT22;7388;51.078;13.740;2022-09-16T00:19:44;18.50;50.70
14604;DHT22;7388;51.078;13.740;2022-09-16T00:22:09;18.50;50.80
14604;DHT22;7388;51.078;13.740;2022-09-16T00:24:35;18.50;50.80
14604;DHT22;7388;51.078;13.740;2022-09-16T00:27:01;18.50;50.70
14604;DHT22;7388;51.078;13.740;2022-09-16T00:29:27;18.40;50.70
14604;DHT22;7388;51.078;13.740;2022-09-16T00:31:52;18.40;50.80
14604;DHT22;7388;51.078;13.740;2022-09-16T00:34:18;18.40;50.70
14604;DHT22;7388;51.078;13.740;2022-09-16T00:36:44;18.40;50.80
14604;DHT22;7388;51.078;13.740;2022-09-16T00:39:10;18.40;50.80
14604;DHT22;7388;51.078;13.740;2022-09-16T00:41:35;18.40;50.90
14604;DHT22;7388;51.078;13.740;2022-09-16T00:44:48;18.30;51.10
14604;DHT22;7388;51.078;13.740;2022-09-16T00:46:52;18.30;51.10
14604;DHT22;7388;51.078;13.740;2022-09-16T00:49:28;18.30;51.20
14604;DHT22;7388;51.078;13.740;2022-09-16T00:51:59;18.40;51.30
14604;DHT22;7388;51.078;13.740;2022-09-16T00:54:27;18.40;51.30
14604;DHT22;7388;51.078;13.740;2022-09-16T00:56:56;18.30;51.30
14604;DHT22;7388;51.078;13.740;2022-09-16T00:59:32;18.30;51.40
14604;DHT22;7388;51.078;13.740;2022-09-16T01:02:04;18.30;51.10
14604;DHT22;7388;51.078;13.740;2022-09-16T01:04:35;18.30;51.20
14604;DHT22;7388;51.078;13.740;2022-09-16T01:07:02;18.30;51.30
14604;DHT22;7388;51.078;13.740;2022-09-16T01:09:28;18.30;51.60
14604;DHT22;7388;51.078;13.740;2022-09-16T01:11:55;18.30;51.50
14604;DHT22;7388;51.078;13.740;2022-09-16T01:14:22;18.30;51.40
14604;DHT22;7388;51.078;13.740;2022-09-16T01:33:48;18.00;51.20
14604;DHT22;7388;51.078;13.740;2022-09-16T01:36:36;18.00;51.10
14604;DHT22;7388;51.078;13.740;2022-09-16T01:49:51;17.90;50.80
14604;DHT22;7388;51.078;13.740;2022-09-16T01:55:38;17.80;50.60
14604;DHT22;7388;51.078;13.740;2022-09-16T01:58:33;17.80;50.70
14604;DHT22;7388;51.078;13.740;2022-09-16T02:01:08;17.80;50.50
14604;DHT22;7388;51.078;13.740;2022-09-16T02:03:39;17.80;50.50
14604;DHT22;7388;51.078;13.740;2022-09-16T02:06:08;17.70;50.60
14604;DHT22;7388;51.078;13.740;2022-09-16T02:08:48;17.80;50.20
14604;DHT22;7388;51.078;13.740;2022-09-16T02:11:16;17.80;50.40
14604;DHT22;7388;51.078;13.740;2022-09-16T02:14:21;17.80;50.60
14604;DHT22;7388;51.078;13.740;2022-09-16T02:16:44;17.80;50.70
14604;DHT22;7388;51.078;13.740;2022-09-16T02:19:16;17.90;50.80
14604;DHT22;7388;51.078;13.740;2022-09-16T02:21:45;17.90;50.80
14604;DHT22;7388;51.078;13.740;2022-09-16T02:24:16;17.90;50.80
14604;DHT22;7388;51.078;13.740;2022-09-16T02:26:51;17.90;50.90
14604;DHT22;7388;51.078;13.740;2022-09-16T02:29:24;17.90;50.80
14604;DHT22;7388;51.078;13.740;2022-09-16T02:31:54;17.90;51.00
14604;DHT22;7388;51.078;13.740;2022-09-16T02:34:31;18.00;50.80
14604;DHT22;7388;51.078;13.740;2022-09-16T02:37:07;18.00;50.80
14604;DHT22;7388;51.078;13.740;2022-09-16T02:39:38;18.00;50.80
14604;DHT22;7388;51.078;13.740;2022-09-16T02:42:05;18.00;50.80
14604;DHT22;7388;51.078;13.740;2022-09-16T02:44:31;18.00;50.70
14604;DHT22;7388;51.078;13.740;2022-09-16T02:47:31;18.00;50.80
14604;DHT22;7388;51.078;13.740;2022-09-16T02:50:43;18.00;50.70
14604;DHT22;7388;51.078;13.740;2022-09-16T02:53:02;18.00;50.90
14604;DHT22;7388;51.078;13.740;2022-09-16T02:57:57;18.00;51.10
14604;DHT22;7388;51.078;13.740;2022-09-16T03:00:23;18.00;51.10
14604;DHT22;7388;51.078;13.740;2022-09-16T03:02:51;18.00;51.00
14604;DHT22;7388;51.078;13.740;2022-09-16T03:05:18;18.00;51.00
14604;DHT22;7388;51.078;13.740;2022-09-16T03:07:44;18.00;51.20
14604;DHT22;7388;51.078;13.740;2022-09-16T03:10:11;18.00;51.20
14604;DHT22;7388;51.078;13.740;2022-09-16T03:13:02;18.10;51.30
14604;DHT22;7388;51.078;13.740;2022-09-16T03:21:33;18.10;51.40
14604;DHT22;7388;51.078;13.740;2022-09-16T03:24:41;18.00;51.10
14604;DHT22;7388;51.078;13.740;2022-09-16T03:27:19;18.00;51.30
14604;DHT22;7388;51.078;13.740;2022-09-16T03:32:30;18.00;51.40
14604;DHT22;7388;51.078;13.740;2022-09-16T03:35:06;18.00;51.50
14604;DHT22;7388;51.078;13.740;2022-09-16T03:37:35;18.00;51.50
14604;DHT22;7388;51.078;13.740;2022-09-16T03:40:07;18.00;51.50
14604;DHT22;7388;51.078;13.740;2022-09-16T03:42:34;18.00;51.40
14604;DHT22;7388;51.078;13.740;2022-09-16T03:45:02;18.00;51.50
14604;DHT22;7388;51.078;13.740;2022-09-16T03:47:28;18.00;51.40
14604;DHT22;7388;51.078;13.740;2022-09-16T03:49:54;18.00;51.50
14604;DHT22;7388;51.078;13.740;2022-09-16T03:52:20;18.00;51.50
14604;DHT22;7388;51.078;13.740;2022-09-16T03:54:46;18.00;51.50
14604;DHT22;7388;51.078;13.740;2022-09-16T03:57:11;18.00;51.40
14604;DHT22;7388;51.078;13.740;2022-09-16T03:59:37;18.00;51.40
14604;DHT22;7388;51.078;13.740;2022-09-16T04:02:03;18.00;51.40
14604;DHT22;7388;51.078;13.740;2022-09-16T04:04:28;18.10;51.20
14604;DHT22;7388;51.078;13.740;2022-09-16T04:06:55;18.00;51.00
14604;DHT22;7388;51.078;13.740;2022-09-16T04:09:21;18.00;50.40
14604;DHT22;7388;51.078;13.740;2022-09-16T04:11:47;18.00;50.60
14604;DHT22;7388;51.078;13.740;2022-09-16T04:14:13;17.90;50.70
14604;DHT22;7388;51.078;13.740;2022-09-16T04:16:39;17.90;50.70
14604;DHT22;7388;51.078;13.740;2022-09-16T04:19:05;17.80;50.60
14604;DHT22;7388;51.078;13.740;2022-09-16T04:21:32;17.80;50.40
14604;DHT22;7388;51.078;13.740;2022-09-16T04:23:57;17.80;50.50
14604;DHT22;7388;51.078;13.740;2022-09-16T04:26:23;17.80;50.20
14604;DHT22;7388;51.078;13.740;2022-09-16T04:28:52;17.80;50.50
14604;DHT22;7388;51.078;13.740;2022-09-16T04:31:19;17.80;50.40
14604;DHT22;7388;51.078;13.740;2022-09-16T04:33:45;17.80;50.40
14604;DHT22;7388;51.078;13.740;2022-09-16T04:36:13;17.80;50.70
14604;DHT22;7388;51.078;13.740;2022-09-16T04:38:43;17.80;50.60
14604;DHT22;7388;51.078;13.740;2022-09-16T04:41:21;17.90;50.70
14604;DHT22;7388;51.078;13.740;2022-09-16T04:43:55;17.90;50.60
14604;DHT22;7388;51.078;13.740;2022-09-16T04:46:22;17.90;50.60
14604;DHT22;7388;51.078;13.740;2022-09-16T04:48:49;17.80;49.90
14604;DHT22;7388;51.078;13.740;2022-09-16T04:51:16;17.80;49.70
14604;DHT22;7388;51.078;13.740;2022-09-16T04:53:42;17.80;49.90
14604;DHT22;7388;51.078;13.740;2022-09-16T04:56:16;17.80;49.40
14604;DHT22;7388;51.078;13.740;2022-09-16T04:58:44;17.80;49.50
14604;DHT22;7388;51.078;13.740;2022-09-16T05:01:11;17.80;49.70
14604;DHT22;7388;51.078;13.740;2022-09-16T05:03:42;17.80;49.60
14604;DHT22;7388;51.078;13.740;2022-09-16T05:06:11;17.80;49.40
14604;DHT22;7388;51.078;13.740;2022-09-16T05:08:37;17.80;49.30
14604;DHT22;7388;51.078;13.740;2022-09-16T05:11:05;17.80;49.60
14604;DHT22;7388;51.078;13.740;2022-09-16T05:13:31;17.80;49.70
14604;DHT22;7388;51.078;13.740;2022-09-16T05:16:04;17.80;49.60
14604;DHT22;7388;51.078;13.740;2022-09-16T05:18:30;17.70;49.60
14604;DHT22;7388;51.078;13.740;2022-09-16T05:21:00;17.70;49.40
14604;DHT22;7388;51.078;13.740;2022-09-16T05:23:26;17.80;49.30
14604;DHT22;7388;51.078;13.740;2022-09-16T05:25:52;17.80;49.30
14604;DHT22;7388;51.078;13.740;2022-09-16T05:28:18;17.70;48.40
14604;DHT22;7388;51.078;13.740;2022-09-16T05:30:44;17.70;48.50
14604;DHT22;7388;51.078;13.740;2022-09-16T05:33:10;17.70;48.90
14604;DHT22;7388;51.078;13.740;2022-09-16T05:35:36;17.70;48.80
14604;DHT22;7388;51.078;13.740;2022-09-16T05:38:01;17.70;48.80
14604;DHT22;7388;51.078;13.740;2022-09-16T05:40:27;17.70;48.70
14604;DHT22;7388;51.078;13.740;2022-09-16T05:42:53;17.70;49.00
14604;DHT22;7388;51.078;13.740;2022-09-16T05:45:20;17.80;49.10
14604;DHT22;7388;51.078;13.740;2022-09-16T05:47:49;17.80;48.90
14604;DHT22;7388;51.078;13.740;2022-09-16T05:50:15;17.80;49.10
14604;DHT22;7388;51.078;13.740;2022-09-16T05:52:41;17.80;49.10
14604;DHT22;7388;51.078;13.740;2022-09-16T05:55:07;17.80;49.30
14604;DHT22;7388;51.078;13.740;2022-09-16T05:57:33;17.90;49.20
14604;DHT22;7388;51.078;13.740;2022-09-16T05:59:59;17.90;49.40
14604;DHT22;7388;51.078;13.740;2022-09-16T06:02:25;17.90;49.20
14604;DHT22;7388;51.078;13.740;2022-09-16T06:04:50;18.00;49.10
14604;DHT22;7388;51.078;13.740;2022-09-16T06:07:17;17.90;49.00
14604;DHT22;7388;51.078;13.740;2022-09-16T06:09:43;18.00;48.90
14604;DHT22;7388;51.078;13.740;2022-09-16T06:12:09;18.00;49.20
14604;DHT22;7388;51.078;13.740;2022-09-16T06:14:35;18.10;48.90
14604;DHT22;7388;51.078;13.740;2022-09-16T06:17:01;18.10;48.60
14604;DHT22;7388;51.078;13.740;2022-09-16T06:19:27;18.00;48.20
14604;DHT22;7388;51.078;13.740;2022-09-16T06:21:53;18.10;48.60
14604;DHT22;7388;51.078;13.740;2022-09-16T06:24:20;18.20;48.90
14604;DHT22;7388;51.078;13.740;2022-09-16T06:26:47;18.20;48.20
14604;DHT22;7388;51.078;13.740;2022-09-16T06:29:14;18.20;48.30
14604;DHT22;7388;51.078;13.740;2022-09-16T06:31:41;18.20;47.00
14604;DHT22;7388;51.078;13.740;2022-09-16T06:34:12;18.20;47.70
14604;DHT22;7388;51.078;13.740;2022-09-16T06:36:38;18.30;47.70
14604;DHT22;7388;51.078;13.740;2022-09-16T06:39:04;18.30;47.80
14604;DHT22;7388;51.078;13.740;2022-09-16T06:41:32;18.40;47.30
14604;DHT22;7388;51.078;13.740;2022-09-16T06:43:59;18.40;47.30
14604;DHT22;7388;51.078;13.740;2022-09-16T06:46:26;18.30;47.30
14604;DHT22;7388;51.078;13.740;2022-09-16T06:48:54;18.30;46.90
14604;DHT22;7388;51.078;13.740;2022-09-16T06:51:28;18.40;47.20
14604;DHT22;7388;51.078;13.740;2022-09-16T06:54:00;18.40;47.50
14604;DHT22;7388;51.078;13.740;2022-09-16T06:56:26;18.40;46.60
14604;DHT22;7388;51.078;13.740;2022-09-16T06:58:52;18.30;46.70
14604;DHT22;7388;51.078;13.740;2022-09-16T07:01:27;18.30;46.50
14604;DHT22;7388;51.078;13.740;2022-09-16T07:03:54;18.30;46.70
14604;DHT22;7388;51.078;13.740;2022-09-16T07:06:22;18.30;47.00
14604;DHT22;7388;51.078;13.740;2022-09-16T07:08:48;18.30;47.00
14604;DHT22;7388;51.078;13.740;2022-09-16T07:11:19;18.30;46.70
14604;DHT22;7388;51.078;13.740;2022-09-16T07:13:46;18.40;46.70
14604;DHT22;7388;51.078;13.740;2022-09-16T07:16:14;18.40;47.20
14604;DHT22;7388;51.078;13.740;2022-09-16T07:18:41;18.40;46.10
14604;DHT22;7388;51.078;13.740;2022-09-16T07:21:19;18.40;46.10
14604;DHT22;7388;51.078;13.740;2022-09-16T07:23:46;18.50;46.50
14604;DHT22;7388;51.078;13.740;2022-09-16T07:26:13;18.60;46.50
14604;DHT22;7388;51.078;13.740;2022-09-16T07:28:39;18.60;46.20
14604;DHT22;7388;51.078;13.740;2022-09-16T07:31:11;18.70;46.10
14604;DHT22;7388;51.078;13.740;2022-09-16T07:33:38;18.70;45.90
14604;DHT22;7388;51.078;13.740;2022-09-16T07:36:06;18.80;45.80
14604;DHT22;7388;51.078;13.740;2022-09-16T07:38:32;18.70;44.60
14604;DHT22;7388;51.078;13.740;2022-09-16T07:41:05;18.70;44.60
14604;DHT22;7388;51.078;13.740;2022-09-16T07:43:31;18.60;44.50
14604;DHT22;7388;51.078;13.740;2022-09-16T07:45:58;18.60;45.40
14604;DHT22;7388;51.078;13.740;2022-09-16T07:48:25;18.70;46.30
14604;DHT22;7388;51.078;13.740;2022-09-16T07:50:59;18.70;46.00
14604;DHT22;7388;51.078;13.740;2022-09-16T07:53:26;18.90;46.10
14604;DHT22;7388;51.078;13.740;2022-09-16T07:56:02;18.80;45.20
14604;DHT22;7388;51.078;13.740;2022-09-16T07:58:28;18.90;45.50
14604;DHT22;7388;51.078;13.740;2022-09-16T08:00:54;19.00;45.40
14604;DHT22;7388;51.078;13.740;2022-09-16T08:03:20;19.00;44.90
14604;DHT22;7388;51.078;13.740;2022-09-16T08:05:46;19.00;45.10
14604;DHT22;7388;51.078;13.740;2022-09-16T08:08:11;19.00;45.30
14604;DHT22;7388;51.078;13.740;2022-09-16T08:10:37;19.00;44.40
14604;DHT22;7388;51.078;13.740;2022-09-16T08:13:05;19.00;44.30
14604;DHT22;7388;51.078;13.740;2022-09-16T08:15:31;19.10;45.80
14604;DHT22;7388;51.078;13.740;2022-09-16T08:17:57;19.10;44.20
14604;DHT22;7388;51.078;13.740;2022-09-16T08:20:23;19.10;45.10
14604;DHT22;7388;51.078;13.740;2022-09-16T08:22:50;19.10;44.90
14604;DHT22;7388;51.078;13.740;2022-09-16T08:25:16;19.00;42.40
14604;DHT22;7388;51.078;13.740;2022-09-16T08:27:41;19.00;43.10
14604;DHT22;7388;51.078;13.740;2022-09-16T08:30:08;19.00;43.10
14604;DHT22;7388;51.078;13.740;2022-09-16T08:32:34;19.00;43.00
14604;DHT22;7388;51.078;13.740;2022-09-16T08:35:00;19.00;42.40
14604;DHT22;7388;51.078;13.740;2022-09-16T08:37:26;19.00;43.50
14604;DHT22;7388;51.078;13.740;2022-09-16T08:39:51;19.20;44.30
14604;DHT22;7388;51.078;13.740;2022-09-16T08:50:41;19.20;42.30
14604;DHT22;7388;51.078;13.740;2022-09-16T08:53:33;19.30;44.10
14604;DHT22;7388;51.078;13.740;2022-09-16T08:56:03;19.40;43.20
14604;DHT22;7388;51.078;13.740;2022-09-16T08:58:42;19.30;44.10
14604;DHT22;7388;51.078;13.740;2022-09-16T09:01:22;19.30;41.60
14604;DHT22;7388;51.078;13.740;2022-09-16T09:03:49;19.30;42.60
14604;DHT22;7388;51.078;13.740;2022-09-16T09:15:09;19.30;41.50
14604;DHT22;7388;51.078;13.740;2022-09-16T09:20:50;19.20;41.40
14604;DHT22;7388;51.078;13.740;2022-09-16T09:26:31;19.20;42.10
14604;DHT22;7388;51.078;13.740;2022-09-16T09:31:46;19.20;42.80
14604;DHT22;7388;51.078;13.740;2022-09-16T09:34:47;19.20;41.90
14604;DHT22;7388;51.078;13.740;2022-09-16T09:37:37;19.20;42.20
14604;DHT22;7388;51.078;13.740;2022-09-16T09:43:23;19.20;42.70
14604;DHT22;7388;51.078;13.740;2022-09-16T09:49:01;19.30;42.90
14604;DHT22;7388;51.078;13.740;2022-09-16T09:51:48;19.40;42.40
14604;DHT22;7388;51.078;13.740;2022-09-16T09:54:35;19.40;41.70
14604;DHT22;7388;51.078;13.740;2022-09-16T09:57:40;19.50;41.80
14604;DHT22;7388;51.078;13.740;2022-09-16T10:00:16;19.50;41.10
14604;DHT22;7388;51.078;13.740;2022-09-16T10:02:44;19.50;41.10
14604;DHT22;7388;51.078;13.740;2022-09-16T10:05:26;19.50;41.50
14604;DHT22;7388;51.078;13.740;2022-09-16T10:07:56;19.60;41.00
14604;DHT22;7388;51.078;13.740;2022-09-16T10:10:24;19.70;40.90
14604;DHT22;7388;51.078;13.740;2022-09-16T10:12:51;19.70;41.10
14604;DHT22;7388;51.078;13.740;2022-09-16T10:15:26;19.70;39.20
14604;DHT22;7388;51.078;13.740;2022-09-16T10:17:53;19.60;39.60
14604;DHT22;7388;51.078;13.740;2022-09-16T10:20:26;19.60;41.00
14604;DHT22;7388;51.078;13.740;2022-09-16T10:23:12;19.60;42.50
14604;DHT22;7388;51.078;13.740;2022-09-16T10:25:38;19.70;43.80
14604;DHT22;7388;51.078;13.740;2022-09-16T10:28:26;19.60;43.30
14604;DHT22;7388;51.078;13.740;2022-09-16T10:30:54;19.60;43.90
14604;DHT22;7388;51.078;13.740;2022-09-16T10:33:24;19.60;44.50
14604;DHT22;7388;51.078;13.740;2022-09-16T10:36:04;19.60;44.50
14604;DHT22;7388;51.078;13.740;2022-09-16T10:38:49;19.50;44.60
14604;DHT22;7388;51.078;13.740;2022-09-16T10:41:26;19.40;44.70
14604;DHT22;7388;51.078;13.740;2022-09-16T10:43:53;19.30;44.20
14604;DHT22;7388;51.078;13.740;2022-09-16T10:46:19;19.20;44.20
14604;DHT22;7388;51.078;13.740;2022-09-16T10:48:47;19.20;44.50
14604;DHT22;7388;51.078;13.740;2022-09-16T10:51:27;19.10;45.20
14604;DHT22;7388;51.078;13.740;2022-09-16T10:53:58;19.20;44.50
14604;DHT22;7388;51.078;13.740;2022-09-16T10:56:29;19.20;45.10
14604;DHT22;7388;51.078;13.740;2022-09-16T10:59:10;19.20;45.00
14604;DHT22;7388;51.078;13.740;2022-09-16T11:09:51;19.70;44.30
14604;DHT22;7388;51.078;13.740;2022-09-16T11:12:31;19.90;44.20
14604;DHT22;7388;51.078;13.740;2022-09-16T11:15:34;19.90;42.40
14604;DHT22;7388;51.078;13.740;2022-09-16T11:24:09;19.80;42.00
14604;DHT22;7388;51.078;13.740;2022-09-16T11:29:29;19.30;41.60
14604;DHT22;7388;51.078;13.740;2022-09-16T11:35:46;19.30;45.20
14604;DHT22;7388;51.078;13.740;2022-09-16T11:43:01;19.50;45.30
14604;DHT22;7388;51.078;13.740;2022-09-16T11:45:50;19.50;44.40
14604;DHT22;7388;51.078;13.740;2022-09-16T11:56:46;20.00;43.50
14604;DHT22;7388;51.078;13.740;2022-09-16T11:59:33;20.30;41.70
14604;DHT22;7388;51.078;13.740;2022-09-16T12:02:25;20.30;42.00
14604;DHT22;7388;51.078;13.740;2022-09-16T12:10:50;20.80;43.00
14604;DHT22;7388;51.078;13.740;2022-09-16T12:13:34;21.00;42.00
14604;DHT22;7388;51.078;13.740;2022-09-16T12:16:04;21.30;41.10
14604;DHT22;7388;51.078;13.740;2022-09-16T12:18:44;21.50;39.30
14604;DHT22;7388;51.078;13.740;2022-09-16T12:21:25;21.60;38.50
14604;DHT22;7388;51.078;13.740;2022-09-16T12:24:11;21.80;38.60
14604;DHT22;7388;51.078;13.740;2022-09-16T12:26:46;21.90;39.20
14604;DHT22;7388;51.078;13.740;2022-09-16T12:29:25;22.10;39.90
14604;DHT22;7388;51.078;13.740;2022-09-16T12:32:03;22.30;38.40
14604;DHT22;7388;51.078;13.740;2022-09-16T12:34:40;22.50;38.00
14604;DHT22;7388;51.078;13.740;2022-09-16T12:37:29;22.50;37.10
14604;DHT22;7388;51.078;13.740;2022-09-16T12:39:59;22.30;34.80
14604;DHT22;7388;51.078;13.740;2022-09-16T12:42:58;22.20;36.30
14604;DHT22;7388;51.078;13.740;2022-09-16T12:54:43;22.60;36.20
14604;DHT22;7388;51.078;13.740;2022-09-16T13:00:18;23.00;36.40
14604;DHT22;7388;51.078;13.740;2022-09-16T13:02:53;22.90;33.70
14604;DHT22;7388;51.078;13.740;2022-09-16T13:05:25;23.00;35.30
14604;DHT22;7388;51.078;13.740;2022-09-16T13:07:54;23.00;35.50
14604;DHT22;7388;51.078;13.740;2022-09-16T13:12:57;23.10;37.50
14604;DHT22;7388;51.078;13.740;2022-09-16T13:15:34;23.20;35.90
14604;DHT22;7388;51.078;13.740;2022-09-16T13:18:20;23.20;34.20
14604;DHT22;7388;51.078;13.740;2022-09-16T13:20:50;22.90;33.90
14604;DHT22;7388;51.078;13.740;2022-09-16T13:23:19;23.00;35.70
14604;DHT22;7388;51.078;13.740;2022-09-16T13:25:55;23.20;36.00
14604;DHT22;7388;51.078;13.740;2022-09-16T13:28:35;23.40;34.40
14604;DHT22;7388;51.078;13.740;2022-09-16T13:36:14;24.10;36.40
14604;DHT22;7388;51.078;13.740;2022-09-16T13:38:44;24.30;35.40
14604;DHT22;7388;51.078;13.740;2022-09-16T13:41:12;24.40;35.70
14604;DHT22;7388;51.078;13.740;2022-09-16T13:46:09;24.20;32.40
14604;DHT22;7388;51.078;13.740;2022-09-16T13:48:45;24.20;33.60
14604;DHT22;7388;51.078;13.740;2022-09-16T13:51:19;24.20;30.70
14604;DHT22;7388;51.078;13.740;2022-09-16T13:53:47;24.10;30.40
14604;DHT22;7388;51.078;13.740;2022-09-16T14:01:52;23.90;31.80
14604;DHT22;7388;51.078;13.740;2022-09-16T14:10:17;23.10;33.40
14604;DHT22;7388;51.078;13.740;2022-09-16T14:15:20;22.90;36.50
14604;DHT22;7388;51.078;13.740;2022-09-16T14:17:48;23.00;35.10
14604;DHT22;7388;51.078;13.740;2022-09-16T14:20:18;23.20;35.70
14604;DHT22;7388;51.078;13.740;2022-09-16T14:22:45;23.40;35.30
14604;DHT22;7388;51.078;13.740;2022-09-16T14:25:31;23.50;35.10
14604;DHT22;7388;51.078;13.740;2022-09-16T14:28:18;23.70;34.80
14604;DHT22;7388;51.078;13.740;2022-09-16T14:30:55;23.90;35.00
14604;DHT22;7388;51.078;13.740;2022-09-16T14:33:46;24.00;35.00
14604;DHT22;7388;51.078;13.740;2022-09-16T14:36:27;24.20;32.60
14604;DHT22;7388;51.078;13.740;2022-09-16T14:38:59;24.20;30.90
14604;DHT22;7388;51.078;13.740;2022-09-16T14:41:36;24.10;31.10
14604;DHT22;7388;51.078;13.740;2022-09-16T14:45:05;24.10;32.90
14604;DHT22;7388;51.078;13.740;2022-09-16T14:47:37;24.20;33.00
14604;DHT22;7388;51.078;13.740;2022-09-16T14:50:11;24.40;32.20
14604;DHT22;7388;51.078;13.740;2022-09-16T14:52:38;24.50;32.80
14604;DHT22;7388;51.078;13.740;2022-09-16T14:55:24;24.60;32.40
14604;DHT22;7388;51.078;13.740;2022-09-16T14:57:50;24.70;31.80
14604;DHT22;7388;51.078;13.740;2022-09-16T15:00:17;24.80;32.00
14604;DHT22;7388;51.078;13.740;2022-09-16T15:06:05;24.70;30.60
14604;DHT22;7388;51.078;13.740;2022-09-16T15:08:52;24.60;31.90
14604;DHT22;7388;51.078;13.740;2022-09-16T15:11:22;24.60;32.10
14604;DHT22;7388;51.078;13.740;2022-09-16T15:13:50;24.40;29.80
14604;DHT22;7388;51.078;13.740;2022-09-16T15:16:19;24.10;29.00
14604;DHT22;7388;51.078;13.740;2022-09-16T15:18:56;23.80;28.00
14604;DHT22;7388;51.078;13.740;2022-09-16T15:21:26;23.40;27.40
14604;DHT22;7388;51.078;13.740;2022-09-16T15:24:00;23.00;28.20
14604;DHT22;7388;51.078;13.740;2022-09-16T15:26:40;22.60;28.50
14604;DHT22;7388;51.078;13.740;2022-09-16T15:29:31;22.50;30.10
14604;DHT22;7388;51.078;13.740;2022-09-16T15:32:18;22.20;28.80
14604;DHT22;7388;51.078;13.740;2022-09-16T15:34:45;22.10;30.90
14604;DHT22;7388;51.078;13.740;2022-09-16T15:37:29;22.00;32.50
14604;DHT22;7388;51.078;13.740;2022-09-16T15:42:46;21.90;33.70
14604;DHT22;7388;51.078;13.740;2022-09-16T15:45:16;21.70;32.70
14604;DHT22;7388;51.078;13.740;2022-09-16T15:48:12;21.60;32.30
14604;DHT22;7388;51.078;13.740;2022-09-16T15:50:56;21.40;32.70
14604;DHT22;7388;51.078;13.740;2022-09-16T15:55:59;21.30;34.40
14604;DHT22;7388;51.078;13.740;2022-09-16T15:58:33;21.20;33.20
14604;DHT22;7388;51.078;13.740;2022-09-16T16:01:11;21.10;33.70
14604;DHT22;7388;51.078;13.740;2022-09-16T16:03:46;20.90;33.00
14604;DHT22;7388;51.078;13.740;2022-09-16T16:06:15;20.80;33.00
14604;DHT22;7388;51.078;13.740;2022-09-16T16:08:49;20.70;33.10
14604;DHT22;7388;51.078;13.740;2022-09-16T16:11:17;20.70;33.90
14604;DHT22;7388;51.078;13.740;2022-09-16T16:13:43;20.70;34.10
14604;DHT22;7388;51.078;13.740;2022-09-16T16:16:11;20.60;34.00
14604;DHT22;7388;51.078;13.740;2022-09-16T16:18:38;20.50;33.50
14604;DHT22;7388;51.078;13.740;2022-09-16T16:21:08;20.50;34.50
14604;DHT22;7388;51.078;13.740;2022-09-16T16:23:35;20.50;34.10
14604;DHT22;7388;51.078;13.740;2022-09-16T16:26:05;20.50;34.50
14604;DHT22;7388;51.078;13.740;2022-09-16T16:28:32;20.40;33.80
14604;DHT22;7388;51.078;13.740;2022-09-16T16:31:14;20.30;34.20
14604;DHT22;7388;51.078;13.740;2022-09-16T16:33:45;20.20;34.80
14604;DHT22;7388;51.078;13.740;2022-09-16T16:36:16;20.20;35.70
14604;DHT22;7388;51.078;13.740;2022-09-16T16:38:42;20.20;35.70
14604;DHT22;7388;51.078;13.740;2022-09-16T16:41:09;20.30;35.80
14604;DHT22;7388;51.078;13.740;2022-09-16T16:43:37;20.40;35.80
14604;DHT22;7388;51.078;13.740;2022-09-16T16:46:03;20.70;35.80
14604;DHT22;7388;51.078;13.740;2022-09-16T16:48:29;20.80;36.10
14604;DHT22;7388;51.078;13.740;2022-09-16T16:53:22;21.30;36.10
14604;DHT22;7388;51.078;13.740;2022-09-16T16:55:48;21.50;36.40
14604;DHT22;7388;51.078;13.740;2022-09-16T16:58:13;21.60;36.20
14604;DHT22;7388;51.078;13.740;2022-09-16T17:00:39;21.50;36.10
14604;DHT22;7388;51.078;13.740;2022-09-16T17:03:05;21.20;36.00
14604;DHT22;7388;51.078;13.740;2022-09-16T17:05:30;21.10;36.30
14604;DHT22;7388;51.078;13.740;2022-09-16T17:07:56;20.90;36.60
14604;DHT22;7388;51.078;13.740;2022-09-16T17:10:22;20.70;36.90
14604;DHT22;7388;51.078;13.740;2022-09-16T17:12:48;20.60;37.40
14604;DHT22;7388;51.078;13.740;2022-09-16T17:15:13;20.40;37.40
14604;DHT22;7388;51.078;13.740;2022-09-16T17:17:39;20.20;38.10
14604;DHT22;7388;51.078;13.740;2022-09-16T17:20:05;20.10;38.10
14604;DHT22;7388;51.078;13.740;2022-09-16T17:22:31;20.00;38.30
14604;DHT22;7388;51.078;13.740;2022-09-16T17:24:57;19.80;38.60
14604;DHT22;7388;51.078;13.740;2022-09-16T17:27:23;19.70;39.10
14604;DHT22;7388;51.078;13.740;2022-09-16T17:29:51;19.60;39.50
14604;DHT22;7388;51.078;13.740;2022-09-16T17:32:17;19.60;39.40
14604;DHT22;7388;51.078;13.740;2022-09-16T17:34:43;19.50;39.90
14604;DHT22;7388;51.078;13.740;2022-09-16T17:37:09;19.40;39.40
14604;DHT22;7388;51.078;13.740;2022-09-16T17:39:35;19.50;39.50
14604;DHT22;7388;51.078;13.740;2022-09-16T17:42:02;19.30;39.90
14604;DHT22;7388;51.078;13.740;2022-09-16T17:44:27;19.30;39.90
14604;DHT22;7388;51.078;13.740;2022-09-16T17:46:53;19.20;40.20
14604;DHT22;7388;51.078;13.740;2022-09-16T17:49:21;19.20;39.90
14604;DHT22;7388;51.078;13.740;2022-09-16T17:51:49;19.10;40.00
14604;DHT22;7388;51.078;13.740;2022-09-16T17:54:15;19.10;40.10
14604;DHT22;7388;51.078;13.740;2022-09-16T17:56:41;19.00;40.20
14604;DHT22;7388;51.078;13.740;2022-09-16T17:59:08;19.00;40.20
14604;DHT22;7388;51.078;13.740;2022-09-16T18:01:34;18.90;40.40
14604;DHT22;7388;51.078;13.740;2022-09-16T18:04:00;18.90;40.70
14604;DHT22;7388;51.078;13.740;2022-09-16T18:06:31;18.80;40.70
14604;DHT22;7388;51.078;13.740;2022-09-16T18:09:01;18.80;40.90
14604;DHT22;7388;51.078;13.740;2022-09-16T18:11:27;18.70;41.00
14604;DHT22;7388;51.078;13.740;2022-09-16T18:13:58;18.70;41.20
14604;DHT22;7388;51.078;13.740;2022-09-16T18:16:25;18.70;41.10
14604;DHT22;7388;51.078;13.740;2022-09-16T18:18:52;18.60;41.60
14604;DHT22;7388;51.078;13.740;2022-09-16T18:21:19;18.60;41.40
14604;DHT22;7388;51.078;13.740;2022-09-16T18:23:46;18.50;41.10
14604;DHT22;7388;51.078;13.740;2022-09-16T18:26:14;18.40;41.40
14604;DHT22;7388;51.078;13.740;2022-09-16T18:28:42;18.40;41.60
14604;DHT22;7388;51.078;13.740;2022-09-16T18:31:16;18.40;41.00
14604;DHT22;7388;51.078;13.740;2022-09-16T18:33:42;18.40;41.10
14604;DHT22;7388;51.078;13.740;2022-09-16T18:36:13;18.30;41.70